createdAt,value
2019-05-03T00:02:26.857Z,89.11
2019-05-03T00:05:12.498Z,88.51
2019-05-03T00:07:44.550Z,88.32
2019-05-03T00:10:17.157Z,87.66
2019-05-03T00:12:48.938Z,88.16
2019-05-03T00:15:45.500Z,87.50
2019-05-03T00:18:17.537Z,88.80
2019-05-03T00:20:49.289Z,87.61
2019-05-03T00:23:22.825Z,86.94
2019-05-03T00:25:54.374Z,88.31
2019-05-03T00:28:26.182Z,87.15
2019-05-03T00:30:57.604Z,88.43
2019-05-03T00:33:31.730Z,86.76
2019-05-03T00:36:32.671Z,87.46
2019-05-03T00:39:21.702Z,88.26
2019-05-03T00:41:53.375Z,86.85
2019-05-03T00:44:24.690Z,87.72
2019-05-03T00:46:57.311Z,87.49
2019-05-03T00:49:28.714Z,87.34
2019-05-03T00:52:02.209Z,88.47
2019-05-03T00:54:33.703Z,87.35
2019-05-03T00:57:05.131Z,87.41
2019-05-03T00:59:36.340Z,87.71
2019-05-03T01:02:07.713Z,87.71
2019-05-03T01:04:39.152Z,87.77
2019-05-03T01:07:11.759Z,88.50
2019-05-03T01:09:43.630Z,88.60
2019-05-03T01:12:15.420Z,88.34
2019-05-03T01:14:51.544Z,87.98
2019-05-03T01:17:23.273Z,88.11
2019-05-03T01:19:54.886Z,88.42
2019-05-03T01:22:26.343Z,88.18
2019-05-03T01:24:58.065Z,89.16
2019-05-03T01:27:29.362Z,88.38
2019-05-03T01:30:02.981Z,89.35
2019-05-03T01:32:35.793Z,89.09
2019-05-03T01:35:08.483Z,89.01
2019-05-03T01:37:40.100Z,89.44
2019-05-03T01:40:12.519Z,90.04
2019-05-03T01:42:44.003Z,89.30
2019-05-03T01:45:16.040Z,90.78
2019-05-03T01:47:56.998Z,89.97
2019-05-03T01:50:39.672Z,90.05
2019-05-03T01:53:13.937Z,91.02
2019-05-03T01:55:52.345Z,91.02
2019-05-03T01:58:24.532Z,92.80
2019-05-03T02:01:06.293Z,93.35
2019-05-03T02:03:44.303Z,93.59
2019-05-03T02:06:15.715Z,93.58
2019-05-03T02:08:47.176Z,93.88
2019-05-03T02:11:18.912Z,95.07
2019-05-03T02:13:52.139Z,94.78
2019-05-03T02:16:23.816Z,96.17
2019-05-03T02:18:55.540Z,96.18
2019-05-03T02:21:26.842Z,96.91
2019-05-03T02:23:58.052Z,97.07
2019-05-03T02:26:29.519Z,97.78
2019-05-03T02:29:01.858Z,98.01
2019-05-03T02:31:33.260Z,97.98
2019-05-03T02:34:04.624Z,98.32
2019-05-03T02:36:36.315Z,99.02
2019-05-03T02:39:13.520Z,98.79
2019-05-03T02:41:47.969Z,98.66
2019-05-03T02:44:21.216Z,99.46
2019-05-03T02:47:17.670Z,99.25
2019-05-03T02:49:55.995Z,99.78
2019-05-03T02:52:37.572Z,100.00
2019-05-03T02:55:11.734Z,100.00
2019-05-03T02:57:46.229Z,100.00
2019-05-03T03:00:17.804Z,100.00
2019-05-03T03:02:49.346Z,100.00
2019-05-03T03:05:21.711Z,100.00
2019-05-03T03:07:55.908Z,100.00
2019-05-03T03:10:28.920Z,100.00
2019-05-03T03:13:05.904Z,100.00
2019-05-03T03:15:41.325Z,100.00
2019-05-03T03:18:15.783Z,100.00
2019-05-03T03:20:50.421Z,100.00
2019-05-03T03:23:26.565Z,100.00
2019-05-03T03:26:00.693Z,100.00
2019-05-03T03:28:36.747Z,100.00
2019-05-03T03:32:10.295Z,100.00
2019-05-03T03:35:11.068Z,100.00
2019-05-03T03:37:39.332Z,100.00
2019-05-03T03:40:11.315Z,100.00
2019-05-03T03:42:44.964Z,100.00
2019-05-03T03:45:16.836Z,100.00
2019-05-03T03:47:56.230Z,100.00
2019-05-03T03:50:29.876Z,100.00
2019-05-03T03:53:06.741Z,100.00
2019-05-03T03:55:45.664Z,100.00
2019-05-03T03:58:22.391Z,100.00
2019-05-03T04:00:50.577Z,100.00
2019-05-03T04:03:25.698Z,100.00
2019-05-03T04:05:56.675Z,100.00
2019-05-03T04:08:29.258Z,100.00
2019-05-03T04:11:01.598Z,100.00
2019-05-03T04:13:36.121Z,100.00
2019-05-03T04:16:20.727Z,100.00
2019-05-03T04:19:12.117Z,100.00
2019-05-03T04:21:45.308Z,100.00
2019-05-03T04:24:17.490Z,100.00
2019-05-03T04:26:52.859Z,100.00
2019-05-03T04:29:25.383Z,100.00
2019-05-03T04:31:57.329Z,100.00
2019-05-03T04:34:28.608Z,100.00
2019-05-03T04:37:00.402Z,100.00
2019-05-03T04:39:32.089Z,100.00
2019-05-03T04:42:06.338Z,100.00
2019-05-03T04:44:36.853Z,100.00
2019-05-03T04:47:08.352Z,100.00
2019-05-03T04:49:39.661Z,100.00
2019-05-03T04:52:11.304Z,100.00
2019-05-03T04:55:01.473Z,100.00
2019-05-03T04:57:40.505Z,100.00
2019-05-03T05:00:11.320Z,100.00
2019-05-03T05:02:42.067Z,100.00
2019-05-03T05:05:15.446Z,100.00
2019-05-03T05:07:47.036Z,100.00
2019-05-03T05:10:18.484Z,100.00
2019-05-03T05:12:49.799Z,100.00
2019-05-03T05:15:21.590Z,100.00
2019-05-03T05:18:21.052Z,100.00
2019-05-03T05:21:09.361Z,100.00
2019-05-03T05:23:58.364Z,100.00
2019-05-03T05:26:55.190Z,100.00
2019-05-03T05:29:28.972Z,100.00
2019-05-03T05:32:01.009Z,100.00
2019-05-03T05:34:34.901Z,100.00
2019-05-03T05:37:06.545Z,100.00
2019-05-03T05:39:38.019Z,100.00
2019-05-03T05:42:09.467Z,100.00
2019-05-03T05:44:40.866Z,100.00
2019-05-03T05:47:26.060Z,100.00
2019-05-03T05:50:01.464Z,100.00
2019-05-03T05:52:34.616Z,100.00
2019-05-03T05:55:26.246Z,99.47
2019-05-03T05:58:10.099Z,100.00
2019-05-03T06:01:00.208Z,100.00
2019-05-03T06:03:31.602Z,100.00
2019-05-03T06:06:05.817Z,100.00
2019-05-03T06:08:40.748Z,99.92
2019-05-03T06:11:37.046Z,100.00
2019-05-03T06:14:15.745Z,98.88
2019-05-03T06:17:01.625Z,99.88
2019-05-03T06:19:45.921Z,98.19
2019-05-03T06:22:31.135Z,99.02
2019-05-03T06:25:12.783Z,99.24
2019-05-03T06:27:44.969Z,98.81
2019-05-03T06:30:24.895Z,99.04
2019-05-03T06:32:56.518Z,97.72
2019-05-03T06:35:28.176Z,96.78
2019-05-03T06:37:59.866Z,97.01
2019-05-03T06:40:31.298Z,98.05
2019-05-03T06:43:09.210Z,97.01
2019-05-03T06:45:35.899Z,96.90
2019-05-03T06:48:07.328Z,96.75
2019-05-03T06:50:38.705Z,95.86
2019-05-03T06:53:12.864Z,97.22
2019-05-03T06:55:45.526Z,95.63
2019-05-03T06:58:30.553Z,94.13
2019-05-03T07:01:21.009Z,91.71
2019-05-03T07:04:26.563Z,90.06
2019-05-03T07:07:16.770Z,90.79
2019-05-03T07:09:54.576Z,91.10
2019-05-03T07:12:26.162Z,91.70
2019-05-03T07:14:57.805Z,91.36
2019-05-03T07:17:29.110Z,89.63
2019-05-03T07:20:00.485Z,90.39
2019-05-03T07:22:32.501Z,89.81
2019-05-03T07:25:04.671Z,88.60
2019-05-03T07:27:36.150Z,88.60
2019-05-03T07:30:07.626Z,87.59
2019-05-03T07:32:41.089Z,88.88
2019-05-03T07:35:14.776Z,87.56
2019-05-03T07:37:46.496Z,88.69
2019-05-03T07:40:18.343Z,85.47
2019-05-03T07:42:49.745Z,86.70
2019-05-03T07:45:21.465Z,86.01
2019-05-03T07:47:55.841Z,84.30
2019-05-03T07:50:27.521Z,84.05
2019-05-03T07:52:58.875Z,84.31
2019-05-03T07:55:47.984Z,82.40
2019-05-03T07:58:21.756Z,83.95
2019-05-03T08:01:05.804Z,83.69
2019-05-03T08:03:28.742Z,83.83
2019-05-03T08:06:00.581Z,83.07
2019-05-03T08:08:32.406Z,80.85
2019-05-03T08:11:05.329Z,82.65
2019-05-03T08:13:36.887Z,82.71
2019-05-03T08:16:08.375Z,81.13
2019-05-03T08:18:40.433Z,82.14
2019-05-03T08:21:11.895Z,82.11
2019-05-03T08:23:45.165Z,81.92
2019-05-03T08:26:16.299Z,83.27
2019-05-03T08:28:47.810Z,80.62
2019-05-03T08:31:38.077Z,80.92
2019-05-03T08:34:19.304Z,81.47
2019-05-03T08:37:15.975Z,81.32
2019-05-03T08:39:47.716Z,80.10
2019-05-03T08:42:25.392Z,79.27
2019-05-03T08:44:57.727Z,77.56
2019-05-03T08:47:29.237Z,74.98
2019-05-03T08:50:00.784Z,75.67
2019-05-03T08:52:32.115Z,73.69
2019-05-03T08:55:05.214Z,69.92
2019-05-03T08:57:37.173Z,72.34
2019-05-03T09:00:14.496Z,73.01
2019-05-03T09:02:45.985Z,69.40
2019-05-03T09:05:18.608Z,68.98
2019-05-03T09:07:50.893Z,66.60
2019-05-03T09:10:30.272Z,68.94
2019-05-03T09:13:06.840Z,68.55
2019-05-03T09:15:38.884Z,71.05
2019-05-03T09:18:10.611Z,71.71
2019-05-03T09:20:42.068Z,75.31
2019-05-03T09:23:14.876Z,77.84
2019-05-03T09:25:46.838Z,80.26
2019-05-03T09:28:18.156Z,80.84
2019-05-03T09:30:49.490Z,83.59
2019-05-03T09:33:21.258Z,82.38
2019-05-03T09:35:54.957Z,81.15
2019-05-03T09:38:26.805Z,79.03
2019-05-03T09:40:58.180Z,79.13
2019-05-03T09:43:29.796Z,78.40
2019-05-03T09:46:01.210Z,76.21
2019-05-03T09:48:34.718Z,75.87
2019-05-03T09:51:06.033Z,74.26
2019-05-03T09:53:45.435Z,73.36
2019-05-03T09:56:18.573Z,72.11
2019-05-03T09:58:49.957Z,71.11
2019-05-03T10:01:21.312Z,70.35
2019-05-03T10:03:54.791Z,71.03
2019-05-03T10:06:25.955Z,69.51
2019-05-03T10:08:57.194Z,69.75
2019-05-03T10:11:28.505Z,69.11
2019-05-03T10:14:00.218Z,67.48
2019-05-03T10:16:36.462Z,66.21
2019-05-03T10:19:08.316Z,66.33
2019-05-03T10:21:42.465Z,63.01
2019-05-03T10:24:15.225Z,60.60
2019-05-03T10:26:48.433Z,62.11
2019-05-03T10:29:20.066Z,64.21
2019-05-03T10:31:59.719Z,63.01
2019-05-03T10:34:31.364Z,64.56
2019-05-03T10:37:05.185Z,64.34
2019-05-03T10:39:37.987Z,64.28
2019-05-03T10:42:09.454Z,65.52
2019-05-03T10:44:40.782Z,66.64
2019-05-03T10:47:12.105Z,65.62
2019-05-03T10:49:45.768Z,65.59
2019-05-03T10:52:19.183Z,66.84
2019-05-03T10:54:51.030Z,67.92
2019-05-03T10:57:37.794Z,67.41
2019-05-03T11:00:39.309Z,69.52
2019-05-03T11:02:50.134Z,70.12
2019-05-03T11:05:21.744Z,69.45
2019-05-03T11:07:55.640Z,66.48
2019-05-03T11:10:27.499Z,65.84
2019-05-03T11:12:59.074Z,65.18
2019-05-03T11:15:30.631Z,63.75
2019-05-03T11:18:02.073Z,66.30
2019-05-03T11:20:37.558Z,63.84
2019-05-03T11:23:09.696Z,62.46
2019-05-03T11:25:41.074Z,62.20
2019-05-03T11:28:19.194Z,59.54
2019-05-03T11:30:56.495Z,57.52
2019-05-03T11:33:39.864Z,54.50
2019-05-03T11:36:27.628Z,56.35
2019-05-03T11:38:59.161Z,57.29
2019-05-03T11:41:32.938Z,56.75
2019-05-03T11:44:24.495Z,57.20
2019-05-03T11:46:55.831Z,59.62
2019-05-03T11:49:28.067Z,57.46
2019-05-03T11:51:59.529Z,54.85
2019-05-03T11:54:30.941Z,54.67
2019-05-03T11:57:05.257Z,56.28
2019-05-03T11:59:36.986Z,56.36
2019-05-03T12:02:19.726Z,55.70
2019-05-03T12:04:51.020Z,57.38
2019-05-03T12:07:39.494Z,55.35
2019-05-03T12:10:17.609Z,55.08
2019-05-03T12:12:44.541Z,52.76
2019-05-03T12:15:17.169Z,48.27
2019-05-03T12:17:55.306Z,50.76
2019-05-03T12:20:28.644Z,52.44
2019-05-03T12:23:00.288Z,52.37
2019-05-03T12:25:32.700Z,52.37
2019-05-03T12:28:06.248Z,49.90
2019-05-03T12:30:37.635Z,49.01
2019-05-03T12:33:10.255Z,45.95
2019-05-03T12:35:41.678Z,47.10
2019-05-03T12:38:16.279Z,44.39
2019-05-03T12:40:47.120Z,46.72
2019-05-03T12:43:18.485Z,48.14
2019-05-03T12:45:49.850Z,46.79
2019-05-03T12:48:21.680Z,50.25
2019-05-03T12:50:54.577Z,48.74
2019-05-03T12:53:26.101Z,50.55
2019-05-03T12:55:57.818Z,50.68
2019-05-03T12:59:06.481Z,50.44
2019-05-03T13:01:48.462Z,49.40
2019-05-03T13:04:24.699Z,50.69
2019-05-03T13:07:03.146Z,50.07
2019-05-03T13:09:35.753Z,49.41
2019-05-03T13:12:09.667Z,49.06
2019-05-03T13:14:40.923Z,46.56
2019-05-03T13:17:12.467Z,46.35
2019-05-03T13:19:45.222Z,46.91
2019-05-03T13:22:16.695Z,48.73
2019-05-03T13:24:47.915Z,48.89
2019-05-03T13:27:19.209Z,48.51
2019-05-03T13:29:50.655Z,46.93
2019-05-03T13:32:22.022Z,48.91
2019-05-03T13:34:55.290Z,48.48
2019-05-03T13:37:27.011Z,45.74
2019-05-03T13:39:58.297Z,46.44
2019-05-03T13:42:29.737Z,47.29
2019-05-03T13:45:01.631Z,47.72
2019-05-03T13:47:35.047Z,49.09
2019-05-03T13:50:07.543Z,49.18
2019-05-03T13:52:39.318Z,49.82
2019-05-03T13:55:10.979Z,50.61
2019-05-03T13:57:42.293Z,50.80
2019-05-03T14:00:15.223Z,51.45
2019-05-03T14:02:46.745Z,49.27
2019-05-03T14:05:19.178Z,49.78
2019-05-03T14:07:50.626Z,48.67
2019-05-03T14:10:24.985Z,50.39
2019-05-03T14:12:56.639Z,50.18
2019-05-03T14:15:28.197Z,51.60
2019-05-03T14:17:59.478Z,49.64
2019-05-03T14:20:43.333Z,50.19
2019-05-03T14:23:15.360Z,50.82
2019-05-03T14:25:47.014Z,49.57
2019-05-03T14:28:18.643Z,50.91
2019-05-03T14:30:50.067Z,50.54
2019-05-03T14:33:21.523Z,48.78
2019-05-03T14:35:54.714Z,47.74
2019-05-03T14:38:25.774Z,47.68
2019-05-03T14:40:57.025Z,48.98
2019-05-03T14:43:28.697Z,48.64
2019-05-03T14:46:00.896Z,51.35
2019-05-03T14:48:32.480Z,51.37
2019-05-03T14:51:05.462Z,52.46
2019-05-03T14:53:37.618Z,50.43
2019-05-03T14:56:20.324Z,52.67
2019-05-03T14:59:19.927Z,52.41
2019-05-03T15:02:16.415Z,50.75
2019-05-03T15:04:48.285Z,50.25
2019-05-03T15:07:19.718Z,51.34
2019-05-03T15:09:51.001Z,52.24
2019-05-03T15:12:22.466Z,50.86
2019-05-03T15:14:54.606Z,51.36
2019-05-03T15:17:26.111Z,52.55
2019-05-03T15:19:57.548Z,52.76
2019-05-03T15:22:29.872Z,51.35
2019-05-03T15:25:01.961Z,50.04
2019-05-03T15:27:39.145Z,50.42
2019-05-03T15:30:12.583Z,52.58
2019-05-03T15:32:56.587Z,51.34
2019-05-03T15:35:26.670Z,49.68
2019-05-03T15:37:58.419Z,51.69
2019-05-03T15:40:31.432Z,50.40
2019-05-03T15:43:10.945Z,51.42
2019-05-03T15:45:58.784Z,51.72
2019-05-03T15:48:35.136Z,50.67
2019-05-03T15:51:07.141Z,52.10
2019-05-03T15:53:41.671Z,52.53
2019-05-03T15:56:14.711Z,52.56
2019-05-03T15:58:46.970Z,49.19
2019-05-03T16:01:18.582Z,50.89
2019-05-03T16:03:50.068Z,49.87
2019-05-03T16:06:22.170Z,51.03
2019-05-03T16:08:55.289Z,50.11
2019-05-03T16:11:27.210Z,50.29
2019-05-03T16:13:58.806Z,49.32
2019-05-03T16:16:30.838Z,49.02
2019-05-03T16:19:02.558Z,49.77
2019-05-03T16:21:37.178Z,48.61
2019-05-03T16:24:08.622Z,49.10
2019-05-03T16:26:59.102Z,48.66
2019-05-03T16:29:30.660Z,49.71
2019-05-03T16:32:01.974Z,49.11
2019-05-03T16:34:35.050Z,48.97
2019-05-03T16:37:07.661Z,50.43
2019-05-03T16:39:39.239Z,49.54
2019-05-03T16:42:15.465Z,50.72
2019-05-03T16:44:47.158Z,50.35
2019-05-03T16:47:18.556Z,50.16
2019-05-03T16:49:50.045Z,50.09
2019-05-03T16:52:21.594Z,51.54
2019-05-03T16:54:54.765Z,50.33
2019-05-03T16:57:26.263Z,52.63
2019-05-03T16:59:57.633Z,51.81
2019-05-03T17:02:29.206Z,53.39
2019-05-03T17:05:07.613Z,52.80
2019-05-03T17:08:01.120Z,53.15
2019-05-03T17:10:38.753Z,54.29
2019-05-03T17:13:25.229Z,55.00
2019-05-03T17:15:56.987Z,54.57
2019-05-03T17:18:29.096Z,55.42
2019-05-03T17:21:01.489Z,56.25
2019-05-03T17:23:35.146Z,54.95
2019-05-03T17:26:06.629Z,55.96
2019-05-03T17:28:38.300Z,55.26
2019-05-03T17:31:09.569Z,56.05
2019-05-03T17:33:50.604Z,55.24
2019-05-03T17:36:14.383Z,56.15
2019-05-03T17:38:47.587Z,57.22
2019-05-03T17:41:47.347Z,56.20
2019-05-03T17:44:23.591Z,57.73
2019-05-03T17:46:55.067Z,58.73
2019-05-03T17:49:26.433Z,60.33
2019-05-03T17:52:22.759Z,61.26
2019-05-03T17:55:12.102Z,61.21
2019-05-03T17:58:08.359Z,61.34
2019-05-03T18:01:16.690Z,61.18
2019-05-03T18:03:50.741Z,60.72
2019-05-03T18:06:28.802Z,58.36
2019-05-03T18:09:06.981Z,60.80
2019-05-03T18:11:41.454Z,63.34
2019-05-03T18:14:14.655Z,64.75
2019-05-03T18:16:46.477Z,66.26
2019-05-03T18:19:18.852Z,66.19
2019-05-03T18:21:50.120Z,67.45
2019-05-03T18:24:21.595Z,67.96
2019-05-03T18:26:53.069Z,66.15
2019-05-03T18:29:25.228Z,67.25
2019-05-03T18:31:56.742Z,67.89
2019-05-03T18:34:28.198Z,68.43
2019-05-03T18:36:59.667Z,69.46
2019-05-03T18:39:30.916Z,68.84
2019-05-03T18:42:04.920Z,69.54
2019-05-03T18:44:42.058Z,68.05
2019-05-03T18:47:17.236Z,68.19
2019-05-03T18:49:49.348Z,73.08
2019-05-03T18:52:20.910Z,77.91
2019-05-03T18:54:52.215Z,78.07
2019-05-03T18:57:25.425Z,76.71
2019-05-03T18:59:56.902Z,77.19
2019-05-03T19:02:28.336Z,76.98
2019-05-03T19:04:59.546Z,78.69
2019-05-03T19:07:47.593Z,78.11
2019-05-03T19:10:31.471Z,78.22
2019-05-03T19:13:09.899Z,79.30
2019-05-03T19:15:41.489Z,79.73
2019-05-03T19:18:21.672Z,80.51
2019-05-03T19:20:54.982Z,81.06
2019-05-03T19:23:26.131Z,80.53
2019-05-03T19:25:57.708Z,78.90
2019-05-03T19:28:29.063Z,77.50
2019-05-03T19:31:01.358Z,76.89
2019-05-03T19:33:32.711Z,77.45
2019-05-03T19:36:04.519Z,77.70
2019-05-03T19:38:35.934Z,79.06
2019-05-03T19:41:07.468Z,79.64
2019-05-03T19:43:38.851Z,80.43
2019-05-03T19:46:10.125Z,80.41
2019-05-03T19:48:41.454Z,81.33
2019-05-03T19:51:12.806Z,81.12
2019-05-03T19:53:52.055Z,81.48
2019-05-03T19:56:25.480Z,81.12
2019-05-03T19:59:01.569Z,81.21
2019-05-03T20:01:45.257Z,80.75
2019-05-03T20:04:41.492Z,81.41
2019-05-03T20:07:34.543Z,81.29
2019-05-03T20:10:06.714Z,81.08
2019-05-03T20:12:38.006Z,81.17
2019-05-03T20:15:09.756Z,81.41
2019-05-03T20:17:53.995Z,80.94
2019-05-03T20:20:15.504Z,81.54
2019-05-03T20:22:47.683Z,81.83
2019-05-03T20:25:20.422Z,82.24
2019-05-03T20:27:51.963Z,82.47
2019-05-03T20:30:25.382Z,83.04
2019-05-03T20:32:56.888Z,82.82
2019-05-03T20:35:28.266Z,83.33
2019-05-03T20:37:59.677Z,83.51
2019-05-03T20:40:31.106Z,82.62
2019-05-03T20:43:10.047Z,82.45
2019-05-03T20:46:15.976Z,82.97
2019-05-03T20:48:50.275Z,83.19
2019-05-03T20:51:21.914Z,83.41
2019-05-03T20:53:55.269Z,83.01
2019-05-03T20:56:27.312Z,83.28
2019-05-03T20:58:59.563Z,84.25
2019-05-03T21:01:32.093Z,83.88
2019-05-03T21:04:04.796Z,84.37
2019-05-03T21:06:37.168Z,84.18
2019-05-03T21:09:09.826Z,84.31
2019-05-03T21:11:44.821Z,83.77
2019-05-03T21:14:16.689Z,84.19
2019-05-03T21:17:11.176Z,83.79
2019-05-03T21:19:50.753Z,83.50
2019-05-03T21:22:30.140Z,83.61
2019-05-03T21:25:25.317Z,84.36
2019-05-03T21:27:56.893Z,84.16
2019-05-03T21:30:28.351Z,84.07
2019-05-03T21:32:59.617Z,84.57
2019-05-03T21:35:39.390Z,84.73
2019-05-03T21:38:04.725Z,85.15
2019-05-03T21:40:36.329Z,85.71
2019-05-03T21:43:07.735Z,86.20
2019-05-03T21:45:45.361Z,85.73
2019-05-03T21:48:25.356Z,85.91
2019-05-03T21:50:57.122Z,86.15
2019-05-03T21:53:28.421Z,85.83
2019-05-03T21:55:59.702Z,84.96
2019-05-03T21:58:31.282Z,85.62
2019-05-03T22:01:07.091Z,85.60
2019-05-03T22:03:39.518Z,84.80
2019-05-03T22:06:10.870Z,84.94
2019-05-03T22:08:42.324Z,84.70
2019-05-03T22:11:14.877Z,85.06
2019-05-03T22:13:48.124Z,85.07
2019-05-03T22:16:37.358Z,85.33
2019-05-03T22:19:08.979Z,85.63
2019-05-03T22:21:46.602Z,85.84
2019-05-03T22:24:42.150Z,86.00
2019-05-03T22:27:17.650Z,85.60
2019-05-03T22:29:49.806Z,86.02
2019-05-03T22:32:21.380Z,85.01
2019-05-03T22:34:52.795Z,85.63
2019-05-03T22:37:25.283Z,86.23
2019-05-03T22:39:57.606Z,86.56
2019-05-03T22:42:28.981Z,86.52
2019-05-03T22:45:00.348Z,86.30
2019-05-03T22:47:31.804Z,86.36
2019-05-03T22:50:05.282Z,85.86
2019-05-03T22:52:36.261Z,87.04
2019-05-03T22:55:08.063Z,88.50
2019-05-03T22:57:39.341Z,88.93
2019-05-03T23:00:11.877Z,90.11
2019-05-03T23:02:45.549Z,89.74
2019-05-03T23:05:17.146Z,90.31
2019-05-03T23:07:48.455Z,90.32
2019-05-03T23:10:20.263Z,90.79
2019-05-03T23:12:51.620Z,90.55
2019-05-03T23:15:24.414Z,90.97
2019-05-03T23:17:55.919Z,91.42
2019-05-03T23:20:42.617Z,91.92
2019-05-03T23:23:32.889Z,92.21
2019-05-03T23:26:04.576Z,92.02
2019-05-03T23:28:35.956Z,92.06
2019-05-03T23:31:07.408Z,91.42
2019-05-03T23:33:38.771Z,91.49
2019-05-03T23:36:10.598Z,91.25
2019-05-03T23:38:42.313Z,90.55
2019-05-03T23:41:15.285Z,90.36
2019-05-03T23:43:46.791Z,89.63
2019-05-03T23:46:20.623Z,90.44
2019-05-03T23:48:51.946Z,89.60
2019-05-03T23:51:41.253Z,89.88
2019-05-03T23:54:14.825Z,89.45
2019-05-03T23:56:46.013Z,89.35
2019-05-03T23:59:17.790Z,88.94
